Terminal Aerodrome Forecast
Issued by NWS

Home | Current Version | Previous Version | Graphics & Text | Print | Product List | Glossary On
Versions: 1 2 3 4 5 6 7 8 9 10 11 12 13 14 15 16 17 18 19 20 21 22 23 24 25 26 27 28
000
FTUS43 KICT 210529
TAFCNU
TAF
KCNU 210529Z 2106/2206 17006KT P6SM OVC025
     FM211000 17007KT 4SM BR OVC012
     FM211500 17013KT 5SM BR OVC012=

USA.gov is the U.S. government's official web portal to all federal, state and local government web resources and services.